The World — C6RW4 — position and weather

sailwx.info

Track history (hours):
 
Tides and Currents Weather Stations Pressure Air Temp Water Temp Dewpoint Dewpoint Depression Visibility Wind Speed Wind Dir Waves Ship Positions

The World

Operator: Bergshav-Norway

Last reported at 2017-Feb-27 09:32 UTC. Time now 2017-Mar-24 10:18 UTC.
Position S 22°24' E 166°43'.
Warning: this ship's position is 25 days out of date.

Length 196 m; draft 7.1 m.

Type: Ship. MMSI: 311213000.

Date/timePositionNaut miles runAvg speedWind from/ knotsBaromVisibWave heightAir tempDewpointWater temp
2017-Feb-27 09:32S 22°24' E 166°43'1515.3
2017-Feb-27 08:33S 22°20' E 166°28'4 4.0
2017-Feb-27 07:33S 22°16' E 166°26'0 0.0
2017-Feb-27 06:33S 22°16' E 166°26'0 0.0
2017-Feb-27 05:33S 22°16' E 166°26'0 0.0
2017-Feb-27 04:30S 22°16' E 166°26'0 0.0
2017-Feb-27 03:33S 22°16' E 166°26'0 0.0
2017-Feb-27 02:33S 22°16' E 166°26'0 0.0
2017-Feb-27 01:33S 22°16' E 166°26'0 0.0
2017-Feb-27 00:33S 22°16' E 166°26'0 0.0
2017-Feb-26 23:33S 22°16' E 166°26'0 0.0
2017-Feb-26 22:24S 22°16' E 166°26'0 0.0
2017-Feb-26 21:33S 22°16' E 166°26'0 0.0
2017-Feb-26 20:33S 22°16' E 166°26'0 0.0
2017-Feb-26 19:33S 22°16' E 166°26'0 0.0
2017-Feb-26 18:33S 22°16' E 166°26'0 0.0
2017-Feb-26 17:33S 22°16' E 166°26'0 0.0
2017-Feb-26 16:33S 22°16' E 166°26'0 0.0
2017-Feb-26 15:33S 22°16' E 166°26'0 0.0
2017-Feb-26 14:33S 22°16' E 166°26'0 0.0
2017-Feb-26 13:33S 22°16' E 166°26'0 0.0
2017-Feb-26 12:33S 22°16' E 166°26'0 0.0
2017-Feb-26 11:33S 22°16' E 166°26'0 0.0
2017-Feb-26 10:33S 22°16' E 166°26'0 0.0
2017-Feb-26 09:33S 22°16' E 166°26'0 0.0
2017-Feb-26 08:33S 22°16' E 166°26'0 0.0
2017-Feb-26 07:33S 22°16' E 166°26'0 0.0
2017-Feb-26 06:33S 22°16' E 166°26'0 0.0
2017-Feb-26 05:33S 22°16' E 166°26'0 0.0
2017-Feb-26 04:33S 22°16' E 166°26'0 0.0
2017-Feb-26 03:33S 22°16' E 166°26'0 0.0
2017-Feb-26 02:30S 22°16' E 166°26'0 0.0
2017-Feb-26 01:33S 22°16' E 166°26'0 0.0
2017-Feb-26 00:33S 22°16' E 166°26'0 0.0
2017-Feb-25 23:33S 22°16' E 166°26'0 0.0
2017-Feb-25 22:33S 22°16' E 166°26'0 0.0
2017-Feb-25 21:33S 22°16' E 166°26'0 0.0
2017-Feb-25 20:33S 22°16' E 166°26'0 0.0
2017-Feb-25 19:30S 22°16' E 166°26'0 0.0
2017-Feb-25 18:33S 22°16' E 166°26'0 0.0
2017-Feb-25 17:33S 22°16' E 166°26'0 0.0
2017-Feb-25 16:33S 22°16' E 166°26'0 0.0
2017-Feb-25 15:33S 22°16' E 166°26'0 0.0
2017-Feb-25 14:30S 22°16' E 166°26'0 0.0
2017-Feb-25 13:33S 22°16' E 166°26'0 0.0
2017-Feb-25 12:33S 22°16' E 166°26'0 0.0
2017-Feb-25 11:33S 22°16' E 166°26'0 0.0
2017-Feb-25 10:33S 22°16' E 166°26'0 0.0
2017-Feb-25 09:33S 22°16' E 166°26'0 0.0
2017-Feb-25 08:33S 22°16' E 166°26'0 0.0
2017-Feb-25 07:33S 22°16' E 166°26'9 9.0
2017-Feb-25 06:34S 22°19' E 166°17'1414.0
2017-Feb-25 05:33S 22°33' E 166°16'  
2017-Feb-20 10:11S 36°13' E 174°56'711.0
2017-Feb-20 09:33S 36°20' E 174°59'1111.1
2017-Feb-20 08:33S 36°31' E 175°03'16 1.2
2017-Feb-19 19:17S 36°46' E 174°58'7 9.8
2017-Feb-19 18:33S 36°46' E 174°49'5 4.5
2017-Feb-19 17:24S 36°50' E 174°46'0 0.0
2017-Feb-19 16:30S 36°50' E 174°46'0 0.0
2017-Feb-19 15:24S 36°50' E 174°46'0 0.0
2017-Feb-19 14:30S 36°50' E 174°46'0 0.0
2017-Feb-19 13:12S 36°50' E 174°46'0 0.0
2017-Feb-19 12:30S 36°50' E 174°46'0 0.0
2017-Feb-19 11:30S 36°50' E 174°46'0 0.0
2017-Feb-19 10:33S 36°50' E 174°46'0 0.0
2017-Feb-19 09:33S 36°50' E 174°46'0 0.0
2017-Feb-19 08:33S 36°50' E 174°46'0 0.0
2017-Feb-19 07:33S 36°50' E 174°46'0 0.0
2017-Feb-19 06:33S 36°50' E 174°46'0 0.0
2017-Feb-19 05:33S 36°50' E 174°46'0 0.0
2017-Feb-19 04:33S 36°50' E 174°46'0 0.0
2017-Feb-19 03:33S 36°50' E 174°46'0 0.0
2017-Feb-19 02:33S 36°50' E 174°46'0 0.0
2017-Feb-19 01:33S 36°50' E 174°46'0 0.0
2017-Feb-19 00:33S 36°50' E 174°46'0 0.0
2017-Feb-18 23:33S 36°50' E 174°46'0 0.0
2017-Feb-18 22:33S 36°50' E 174°46'0 0.0
2017-Feb-18 21:33S 36°50' E 174°46'0 0.0
2017-Feb-18 20:33S 36°50' E 174°46'0 0.0
2017-Feb-18 19:33S 36°50' E 174°46'0 0.0
2017-Feb-18 18:33S 36°50' E 174°46'0 0.0
2017-Feb-18 17:33S 36°50' E 174°46'0 0.0
2017-Feb-18 16:33S 36°50' E 174°46'0 0.0
2017-Feb-18 15:33S 36°50' E 174°46'0 0.0
2017-Feb-18 14:33S 36°50' E 174°46'0 0.0
2017-Feb-18 13:33S 36°50' E 174°46'0 0.0
2017-Feb-18 12:33S 36°50' E 174°46'0 0.0
2017-Feb-18 11:33S 36°50' E 174°46'0 0.0
2017-Feb-18 10:33S 36°50' E 174°46'0 0.0
2017-Feb-18 09:33S 36°50' E 174°46'0 0.0
2017-Feb-18 08:33S 36°50' E 174°46'0 0.0
2017-Feb-18 07:33S 36°50' E 174°46'0 0.0
2017-Feb-18 06:33S 36°50' E 174°46'0 0.0
2017-Feb-18 05:32S 36°50' E 174°46'0 0.0
2017-Feb-18 04:33S 36°50' E 174°46'0 0.0
2017-Feb-18 03:33S 36°50' E 174°46'0 0.0
2017-Feb-18 02:33S 36°50' E 174°46'0 0.0
2017-Feb-18 01:33S 36°50' E 174°46'0 0.0
2017-Feb-18 00:33S 36°50' E 174°46'0 0.0
2017-Feb-17 23:33S 36°50' E 174°46'0 0.0
2017-Feb-17 22:33S 36°50' E 174°46'0 0.0
2017-Feb-17 21:33S 36°50' E 174°46'0 0.0
2017-Feb-17 20:33S 36°50' E 174°46'0 0.0
2017-Feb-17 19:33S 36°50' E 174°46'0 0.0
2017-Feb-17 18:33S 36°50' E 174°46'0 0.0
2017-Feb-17 17:33S 36°50' E 174°46'0 0.0
2017-Feb-17 16:33S 36°50' E 174°46'0 0.0
2017-Feb-17 15:33S 36°50' E 174°46'0 0.0
2017-Feb-17 14:33S 36°50' E 174°46'0 0.0
2017-Feb-17 13:33S 36°50' E 174°46'0 0.0
2017-Feb-17 12:33S 36°50' E 174°46'0 0.0
2017-Feb-17 11:33S 36°50' E 174°46'0 0.0
2017-Feb-17 10:33S 36°50' E 174°46'0 0.0
2017-Feb-17 09:33S 36°50' E 174°46'  
Track history (hours):
 
Tides and Currents Weather Stations Pressure Air Temp Water Temp Dewpoint Dewpoint Depression Visibility Wind Speed Wind Dir Waves Ship Positions

The World

Operator: Bergshav-Norway

Last reported at 2017-Feb-27 09:32 UTC. Time now 2017-Mar-24 10:18 UTC.
Position S 22°24' E 166°43'.
Warning: this ship's position is 25 days out of date.

Length 196 m; draft 7.1 m.

Type: Ship. MMSI: 311213000.

Date/timePositionNaut miles runAvg speedWind from/ knotsBaromVisibWave heightAir tempDewpointWater temp
2017-Feb-27 09:32S 22°24' E 166°43'1515.3
2017-Feb-27 08:33S 22°20' E 166°28'4 4.0
2017-Feb-27 07:33S 22°16' E 166°26'0 0.0
2017-Feb-27 06:33S 22°16' E 166°26'0 0.0
2017-Feb-27 05:33S 22°16' E 166°26'0 0.0
2017-Feb-27 04:30S 22°16' E 166°26'0 0.0
2017-Feb-27 03:33S 22°16' E 166°26'0 0.0
2017-Feb-27 02:33S 22°16' E 166°26'0 0.0
2017-Feb-27 01:33S 22°16' E 166°26'0 0.0
2017-Feb-27 00:33S 22°16' E 166°26'0 0.0
2017-Feb-26 23:33S 22°16' E 166°26'0 0.0
2017-Feb-26 22:24S 22°16' E 166°26'0 0.0
2017-Feb-26 21:33S 22°16' E 166°26'0 0.0
2017-Feb-26 20:33S 22°16' E 166°26'0 0.0
2017-Feb-26 19:33S 22°16' E 166°26'0 0.0
2017-Feb-26 18:33S 22°16' E 166°26'0 0.0
2017-Feb-26 17:33S 22°16' E 166°26'0 0.0
2017-Feb-26 16:33S 22°16' E 166°26'0 0.0
2017-Feb-26 15:33S 22°16' E 166°26'0 0.0
2017-Feb-26 14:33S 22°16' E 166°26'0 0.0
2017-Feb-26 13:33S 22°16' E 166°26'0 0.0
2017-Feb-26 12:33S 22°16' E 166°26'0 0.0
2017-Feb-26 11:33S 22°16' E 166°26'0 0.0
2017-Feb-26 10:33S 22°16' E 166°26'0 0.0
2017-Feb-26 09:33S 22°16' E 166°26'0 0.0
2017-Feb-26 08:33S 22°16' E 166°26'0 0.0
2017-Feb-26 07:33S 22°16' E 166°26'0 0.0
2017-Feb-26 06:33S 22°16' E 166°26'0 0.0
2017-Feb-26 05:33S 22°16' E 166°26'0 0.0
2017-Feb-26 04:33S 22°16' E 166°26'0 0.0
2017-Feb-26 03:33S 22°16' E 166°26'0 0.0
2017-Feb-26 02:30S 22°16' E 166°26'0 0.0
2017-Feb-26 01:33S 22°16' E 166°26'0 0.0
2017-Feb-26 00:33S 22°16' E 166°26'0 0.0
2017-Feb-25 23:33S 22°16' E 166°26'0 0.0
2017-Feb-25 22:33S 22°16' E 166°26'0 0.0
2017-Feb-25 21:33S 22°16' E 166°26'0 0.0
2017-Feb-25 20:33S 22°16' E 166°26'0 0.0
2017-Feb-25 19:30S 22°16' E 166°26'0 0.0
2017-Feb-25 18:33S 22°16' E 166°26'0 0.0
2017-Feb-25 17:33S 22°16' E 166°26'0 0.0
2017-Feb-25 16:33S 22°16' E 166°26'0 0.0
2017-Feb-25 15:33S 22°16' E 166°26'0 0.0
2017-Feb-25 14:30S 22°16' E 166°26'0 0.0
2017-Feb-25 13:33S 22°16' E 166°26'0 0.0
2017-Feb-25 12:33S 22°16' E 166°26'0 0.0
2017-Feb-25 11:33S 22°16' E 166°26'0 0.0
2017-Feb-25 10:33S 22°16' E 166°26'0 0.0
2017-Feb-25 09:33S 22°16' E 166°26'0 0.0
2017-Feb-25 08:33S 22°16' E 166°26'0 0.0
2017-Feb-25 07:33S 22°16' E 166°26'9 9.0
2017-Feb-25 06:34S 22°19' E 166°17'1414.0
2017-Feb-25 05:33S 22°33' E 166°16'  
2017-Feb-20 10:11S 36°13' E 174°56'711.0
2017-Feb-20 09:33S 36°20' E 174°59'1111.1
2017-Feb-20 08:33S 36°31' E 175°03'16 1.2
2017-Feb-19 19:17S 36°46' E 174°58'7 9.8
2017-Feb-19 18:33S 36°46' E 174°49'5 4.5
2017-Feb-19 17:24S 36°50' E 174°46'0 0.0
2017-Feb-19 16:30S 36°50' E 174°46'0 0.0
2017-Feb-19 15:24S 36°50' E 174°46'0 0.0
2017-Feb-19 14:30S 36°50' E 174°46'0 0.0
2017-Feb-19 13:12S 36°50' E 174°46'0 0.0
2017-Feb-19 12:30S 36°50' E 174°46'0 0.0
2017-Feb-19 11:30S 36°50' E 174°46'0 0.0
2017-Feb-19 10:33S 36°50' E 174°46'0 0.0
2017-Feb-19 09:33S 36°50' E 174°46'0 0.0
2017-Feb-19 08:33S 36°50' E 174°46'0 0.0
2017-Feb-19 07:33S 36°50' E 174°46'0 0.0
2017-Feb-19 06:33S 36°50' E 174°46'0 0.0
2017-Feb-19 05:33S 36°50' E 174°46'0 0.0
2017-Feb-19 04:33S 36°50' E 174°46'0 0.0
2017-Feb-19 03:33S 36°50' E 174°46'0 0.0
2017-Feb-19 02:33S 36°50' E 174°46'0 0.0
2017-Feb-19 01:33S 36°50' E 174°46'0 0.0
2017-Feb-19 00:33S 36°50' E 174°46'0 0.0
2017-Feb-18 23:33S 36°50' E 174°46'0 0.0
2017-Feb-18 22:33S 36°50' E 174°46'0 0.0
2017-Feb-18 21:33S 36°50' E 174°46'0 0.0
2017-Feb-18 20:33S 36°50' E 174°46'0 0.0
2017-Feb-18 19:33S 36°50' E 174°46'0 0.0
2017-Feb-18 18:33S 36°50' E 174°46'0 0.0
2017-Feb-18 17:33S 36°50' E 174°46'0 0.0
2017-Feb-18 16:33S 36°50' E 174°46'0 0.0
2017-Feb-18 15:33S 36°50' E 174°46'0 0.0
2017-Feb-18 14:33S 36°50' E 174°46'0 0.0
2017-Feb-18 13:33S 36°50' E 174°46'0 0.0
2017-Feb-18 12:33S 36°50' E 174°46'0 0.0
2017-Feb-18 11:33S 36°50' E 174°46'0 0.0
2017-Feb-18 10:33S 36°50' E 174°46'0 0.0
2017-Feb-18 09:33S 36°50' E 174°46'0 0.0
2017-Feb-18 08:33S 36°50' E 174°46'0 0.0
2017-Feb-18 07:33S 36°50' E 174°46'0 0.0
2017-Feb-18 06:33S 36°50' E 174°46'0 0.0
2017-Feb-18 05:32S 36°50' E 174°46'0 0.0
2017-Feb-18 04:33S 36°50' E 174°46'0 0.0
2017-Feb-18 03:33S 36°50' E 174°46'0 0.0
2017-Feb-18 02:33S 36°50' E 174°46'0 0.0
2017-Feb-18 01:33S 36°50' E 174°46'0 0.0
2017-Feb-18 00:33S 36°50' E 174°46'0 0.0
2017-Feb-17 23:33S 36°50' E 174°46'0 0.0
2017-Feb-17 22:33S 36°50' E 174°46'0 0.0
2017-Feb-17 21:33S 36°50' E 174°46'0 0.0
2017-Feb-17 20:33S 36°50' E 174°46'0 0.0
2017-Feb-17 19:33S 36°50' E 174°46'0 0.0
2017-Feb-17 18:33S 36°50' E 174°46'0 0.0
2017-Feb-17 17:33S 36°50' E 174°46'0 0.0
2017-Feb-17 16:33S 36°50' E 174°46'0 0.0
2017-Feb-17 15:33S 36°50' E 174°46'0 0.0
2017-Feb-17 14:33S 36°50' E 174°46'0 0.0
2017-Feb-17 13:33S 36°50' E 174°46'0 0.0
2017-Feb-17 12:33S 36°50' E 174°46'0 0.0
2017-Feb-17 11:33S 36°50' E 174°46'0 0.0
2017-Feb-17 10:33S 36°50' E 174°46'0 0.0
2017-Feb-17 09:33S 36°50' E 174°46'  

Dump ship's entire track history